PAEG

Eagle Airport

Airport
ICAO code
PAEG
IATA Code
EAA
Summary
ICAO Region
NAM
ICAO Territory
Location

, Alaska

Serving
Eagle
Elevation
908 ft
Coordinates
64° 46' 41" N , 141° 8' 59" W
Metar
PAEG 240653Z AUTO 16003KT 10SM CLR 22/12 A2995 RMK AO2 SLP140 T02170117 TSNO

Runways

Designator Length Width Surface Rops
6/24 1097 23 GRVL-F No/No

Airport map

Aerial View

SKYbrary Partners:

Safety knowledge contributed by: